createdAt,value
2019-04-14T00:00:38.710Z,99.9
2019-04-14T00:01:48.415Z,99.9
2019-04-14T00:02:58.046Z,99.9
2019-04-14T00:04:07.289Z,99.9
2019-04-14T00:05:16.890Z,99.9
2019-04-14T00:06:25.191Z,99.9
2019-04-14T00:07:34.452Z,99.9
2019-04-14T00:08:44.217Z,99.9
2019-04-14T00:09:54.163Z,99.9
2019-04-14T00:11:03.736Z,99.9
2019-04-14T00:12:12.172Z,99.9
2019-04-14T00:13:20.335Z,99.9
2019-04-14T00:14:29.674Z,99.9
2019-04-14T00:15:43.872Z,99.9
2019-04-14T00:17:00.503Z,99.9
2019-04-14T00:18:09.978Z,99.9
2019-04-14T00:19:17.868Z,99.9
2019-04-14T00:20:27.440Z,99.9
2019-04-14T00:21:36.737Z,99.9
2019-04-14T00:22:45.152Z,99.9
2019-04-14T00:23:54.798Z,99.9
2019-04-14T00:25:04.595Z,99.9
2019-04-14T00:26:12.970Z,99.9
2019-04-14T00:27:23.389Z,99.9
2019-04-14T00:28:31.750Z,99.9
2019-04-14T00:29:39.859Z,99.9
2019-04-14T00:30:49.326Z,99.9
2019-04-14T00:31:58.689Z,99.9
2019-04-14T00:33:08.356Z,99.9
2019-04-14T00:34:18.063Z,99.9
2019-04-14T00:35:27.615Z,99.9
2019-04-14T00:36:37.024Z,99.9
2019-04-14T00:37:46.621Z,99.9
2019-04-14T00:38:54.829Z,99.9
2019-04-14T00:40:03.948Z,99.9
2019-04-14T00:41:13.605Z,99.9
2019-04-14T00:42:23.334Z,99.9
2019-04-14T00:43:33.009Z,99.9
2019-04-14T00:45:53.426Z,99.9
2019-04-14T00:47:11.342Z,99.9
2019-04-14T00:48:21.317Z,99.9
2019-04-14T00:49:31.840Z,99.9
2019-04-14T00:50:41.187Z,99.9
2019-04-14T00:51:50.615Z,99.9
2019-04-14T00:52:59.121Z,99.9
2019-04-14T00:54:08.600Z,99.9
2019-04-14T00:55:18.273Z,99.9
2019-04-14T00:56:27.871Z,99.9
2019-04-14T00:57:37.565Z,99.9
2019-04-14T00:58:46.052Z,99.9
2019-04-14T00:59:55.138Z,99.9
2019-04-14T01:01:03.271Z,99.9
2019-04-14T01:02:12.745Z,99.9
2019-04-14T01:03:22.429Z,99.9
2019-04-14T01:04:31.602Z,99.9
2019-04-14T01:05:39.952Z,99.9
2019-04-14T01:06:49.422Z,99.9
2019-04-14T01:07:59.106Z,99.9
2019-04-14T01:09:08.869Z,99.9
2019-04-14T01:10:17.017Z,99.9
2019-04-14T01:11:25.143Z,99.9
2019-04-14T01:12:34.151Z,99.9
2019-04-14T01:13:42.444Z,99.9
2019-04-14T01:14:52.018Z,99.9
2019-04-14T01:16:08.645Z,99.9
2019-04-14T01:17:30.965Z,99.9
2019-04-14T01:18:39.303Z,99.9
2019-04-14T01:19:48.763Z,99.9
2019-04-14T01:20:58.533Z,99.9
2019-04-14T01:22:09.462Z,99.9
2019-04-14T01:23:17.731Z,99.9
2019-04-14T01:24:27.305Z,99.9
2019-04-14T01:25:36.718Z,99.9
2019-04-14T01:26:46.271Z,99.9
2019-04-14T01:27:55.908Z,99.9
2019-04-14T01:29:05.740Z,99.9
2019-04-14T01:30:13.810Z,99.9
2019-04-14T01:31:23.386Z,99.9
2019-04-14T01:32:33.125Z,99.9
2019-04-14T01:33:42.268Z,99.9
2019-04-14T01:34:52.015Z,99.9
2019-04-14T01:36:05.934Z,99.9
2019-04-14T01:37:14.360Z,99.9
2019-04-14T01:38:23.725Z,99.9
2019-04-14T01:39:32.821Z,99.9
2019-04-14T01:40:42.320Z,99.9
2019-04-14T01:41:52.007Z,99.9
2019-04-14T01:43:01.659Z,99.9
2019-04-14T01:44:11.194Z,99.9
2019-04-14T01:45:20.966Z,99.9
2019-04-14T01:46:31.396Z,99.9
2019-04-14T01:47:43.178Z,99.9
2019-04-14T01:48:52.555Z,99.9
2019-04-14T01:50:01.746Z,99.9
2019-04-14T01:51:09.789Z,99.9
2019-04-14T01:52:19.243Z,99.9
2019-04-14T01:53:29.283Z,99.9
2019-04-14T01:54:38.459Z,99.9
2019-04-14T01:55:48.159Z,99.9
2019-04-14T01:56:56.738Z,99.9
2019-04-14T01:58:05.977Z,99.9
2019-04-14T01:59:14.936Z,99.9
2019-04-14T02:00:24.864Z,99.9
2019-04-14T02:01:33.212Z,99.9
2019-04-14T02:02:42.489Z,99.9
2019-04-14T02:03:50.311Z,99.9
2019-04-14T02:04:59.895Z,99.9
2019-04-14T02:06:09.066Z,99.9
2019-04-14T02:07:18.805Z,99.9
2019-04-14T02:08:28.375Z,99.9
2019-04-14T02:09:37.878Z,99.9
2019-04-14T02:10:47.693Z,99.9
2019-04-14T02:11:57.133Z,99.9
2019-04-14T02:13:07.060Z,99.9
2019-04-14T02:14:15.088Z,99.9
2019-04-14T02:15:24.792Z,99.9
2019-04-14T02:16:40.073Z,99.9
2019-04-14T02:18:07.977Z,99.9
2019-04-14T02:19:17.744Z,99.9
2019-04-14T02:20:27.172Z,99.9
2019-04-14T02:21:36.677Z,99.9
2019-04-14T02:22:46.285Z,99.9
2019-04-14T02:23:56.024Z,99.9
2019-04-14T02:25:05.648Z,99.9
2019-04-14T02:26:13.967Z,99.9
2019-04-14T02:27:23.423Z,99.9
2019-04-14T02:28:33.250Z,99.9
2019-04-14T02:29:42.879Z,99.9
2019-04-14T02:31:00.020Z,99.9
2019-04-14T02:34:15.357Z,99.9
2019-04-14T02:38:22.757Z,99.9
2019-04-14T02:42:17.095Z,99.9
2019-04-14T02:52:11.409Z,99.9
2019-04-14T02:55:57.216Z,99.9
2019-04-14T02:59:33.993Z,99.9
2019-04-14T03:03:21.375Z,99.9
2019-04-14T03:06:40.648Z,99.9
2019-04-14T03:10:24.306Z,99.9
2019-04-14T03:16:51.669Z,99.9
2019-04-14T03:20:24.256Z,99.9
2019-04-14T03:24:08.564Z,99.9
2019-04-14T03:26:41.450Z,99.9
2019-04-14T03:29:58.038Z,99.9
2019-04-14T03:37:49.822Z,99.9
2019-04-14T03:44:48.433Z,99.9
2019-04-14T03:55:00.683Z,99.9
2019-04-14T03:56:53.539Z,99.9
2019-04-14T03:58:03.771Z,99.9
2019-04-14T03:59:17.483Z,99.9
2019-04-14T04:00:26.985Z,99.9
2019-04-14T04:01:36.628Z,99.9
2019-04-14T04:02:44.925Z,99.9
2019-04-14T04:03:52.920Z,99.9
2019-04-14T04:05:02.316Z,99.9
2019-04-14T04:06:11.715Z,99.9
2019-04-14T04:07:21.316Z,99.9
2019-04-14T04:08:29.364Z,99.9
2019-04-14T04:09:38.681Z,99.9
2019-04-14T04:10:46.887Z,99.9
2019-04-14T04:11:56.320Z,99.9
2019-04-14T04:13:04.658Z,99.9
2019-04-14T04:14:12.420Z,99.9
2019-04-14T04:15:21.758Z,99.9
2019-04-14T04:16:31.377Z,99.9
2019-04-14T04:17:40.782Z,99.9
2019-04-14T04:18:57.786Z,99.9
2019-04-14T04:20:22.402Z,99.9
2019-04-14T04:21:31.204Z,99.9
2019-04-14T04:22:39.612Z,99.9
2019-04-14T04:23:49.168Z,99.9
2019-04-14T04:24:57.134Z,99.9
2019-04-14T04:26:06.538Z,99.9
2019-04-14T04:27:16.154Z,99.9
2019-04-14T04:28:25.817Z,99.9
2019-04-14T04:29:35.116Z,99.9
2019-04-14T04:30:43.362Z,99.9
2019-04-14T04:31:52.769Z,99.9
2019-04-14T04:33:02.222Z,99.9
2019-04-14T04:34:11.829Z,99.9
2019-04-14T04:35:20.314Z,99.9
2019-04-14T04:36:29.654Z,99.9
2019-04-14T04:37:39.215Z,99.9
2019-04-14T04:38:48.702Z,99.9
2019-04-14T04:39:58.188Z,99.9
2019-04-14T04:41:06.477Z,99.9
2019-04-14T04:42:15.898Z,99.9
2019-04-14T04:43:25.589Z,99.9
2019-04-14T04:44:33.882Z,99.9
2019-04-14T04:45:43.513Z,99.9
2019-04-14T04:46:53.120Z,99.9
2019-04-14T04:48:02.704Z,99.9
2019-04-14T04:49:18.052Z,99.9
2019-04-14T04:50:36.896Z,99.9
2019-04-14T04:51:46.414Z,99.9
2019-04-14T04:52:55.943Z,99.9
2019-04-14T04:54:04.518Z,99.9
2019-04-14T04:55:13.913Z,99.9
2019-04-14T04:56:23.514Z,99.9
2019-04-14T04:57:32.485Z,99.9
2019-04-14T04:58:41.322Z,99.9
2019-04-14T04:59:49.728Z,99.9
2019-04-14T05:00:59.470Z,99.9
2019-04-14T05:02:09.243Z,99.9
2019-04-14T05:03:17.525Z,99.9
2019-04-14T05:04:26.877Z,99.9
2019-04-14T05:05:36.572Z,99.9
2019-04-14T05:06:45.808Z,99.9
2019-04-14T05:07:54.036Z,99.9
2019-04-14T05:09:03.463Z,99.9
2019-04-14T05:10:13.077Z,99.9
2019-04-14T05:11:21.497Z,99.9
2019-04-14T05:12:30.887Z,99.9
2019-04-14T05:13:40.677Z,99.9
2019-04-14T05:14:50.361Z,99.9
2019-04-14T05:15:59.549Z,99.9
2019-04-14T05:17:07.991Z,99.9
2019-04-14T05:18:15.984Z,99.9
2019-04-14T05:19:31.645Z,99.9
2019-04-14T05:20:48.745Z,99.9
2019-04-14T05:21:58.067Z,99.9
2019-04-14T05:23:06.410Z,99.9
2019-04-14T05:24:15.635Z,99.9
2019-04-14T05:25:25.333Z,99.9
2019-04-14T05:26:33.529Z,99.9
2019-04-14T05:27:43.134Z,99.9
2019-04-14T05:28:52.661Z,99.9
2019-04-14T05:30:01.110Z,99.9
2019-04-14T05:31:10.530Z,99.9
2019-04-14T05:32:20.079Z,99.9
2019-04-14T05:33:29.322Z,99.9
2019-04-14T05:34:37.704Z,99.9
2019-04-14T05:35:46.355Z,99.9
2019-04-14T05:36:56.099Z,99.9
2019-04-14T05:38:04.723Z,99.9
2019-04-14T05:39:14.196Z,99.9
2019-04-14T05:40:23.524Z,99.9
2019-04-14T05:41:32.903Z,99.9
2019-04-14T05:42:41.186Z,99.9
2019-04-14T05:43:55.459Z,99.9
2019-04-14T05:45:11.831Z,99.9
2019-04-14T05:46:21.229Z,99.9
2019-04-14T05:47:30.515Z,99.9
2019-04-14T05:48:38.849Z,99.9
2019-04-14T05:49:50.015Z,99.9
2019-04-14T05:51:06.271Z,99.9
2019-04-14T05:52:14.754Z,99.9
2019-04-14T05:53:24.255Z,99.9
2019-04-14T05:54:32.485Z,99.9
2019-04-14T05:55:41.854Z,99.9
2019-04-14T05:56:50.051Z,99.9
2019-04-14T05:57:59.484Z,99.9
2019-04-14T05:59:08.790Z,99.9
2019-04-14T06:00:17.151Z,99.9
2019-04-14T06:01:27.070Z,99.9
2019-04-14T06:02:35.636Z,99.9
2019-04-14T06:03:43.858Z,99.9
2019-04-14T06:04:53.271Z,99.9
2019-04-14T06:06:02.841Z,99.9
2019-04-14T06:07:10.039Z,99.9
2019-04-14T06:08:17.234Z,99.9
2019-04-14T06:09:24.433Z,99.9
2019-04-14T06:10:31.635Z,99.9
2019-04-14T06:11:38.826Z,99.9
2019-04-14T06:12:45.481Z,99.9
2019-04-14T06:13:52.677Z,99.9
2019-04-14T06:14:59.883Z,99.9
2019-04-14T06:16:06.814Z,99.9
2019-04-14T06:17:13.465Z,99.9
2019-04-14T06:18:20.401Z,99.9
2019-04-14T06:19:36.924Z,99.9
2019-04-14T06:20:47.310Z,99.9
2019-04-14T06:21:54.237Z,99.9
2019-04-14T06:23:01.431Z,99.9
2019-04-14T06:24:08.381Z,99.9
2019-04-14T06:25:15.579Z,99.9
2019-04-14T06:26:22.510Z,99.9
2019-04-14T06:27:29.432Z,99.9
2019-04-14T06:28:36.627Z,99.9
2019-04-14T06:29:43.559Z,99.9
2019-04-14T06:30:50.211Z,99.9
2019-04-14T06:31:56.593Z,98.6
2019-04-14T06:33:03.787Z,98
2019-04-14T06:34:11.003Z,95.5
2019-04-14T06:35:18.215Z,95.7
2019-04-14T06:36:25.415Z,94.9
2019-04-14T06:37:32.620Z,93.1
2019-04-14T06:38:39.827Z,94.5
2019-04-14T06:39:47.021Z,94.8
2019-04-14T06:40:54.628Z,95.4
2019-04-14T06:42:01.828Z,86.9
2019-04-14T06:43:11.605Z,88.7
2019-04-14T06:44:18.680Z,91.9
2019-04-14T06:45:25.883Z,92.9
2019-04-14T06:46:33.083Z,92.1
2019-04-14T06:47:40.283Z,91.7
2019-04-14T06:48:47.214Z,92.1
2019-04-14T06:49:54.413Z,91.7
2019-04-14T06:51:01.623Z,90.2
2019-04-14T06:52:08.879Z,91.6
2019-04-14T06:53:15.817Z,84
2019-04-14T06:54:23.032Z,87.4
2019-04-14T06:55:30.231Z,89.4
2019-04-14T06:56:37.431Z,84.8
2019-04-14T06:57:44.634Z,74.8
2019-04-14T06:58:51.836Z,78.8
2019-04-14T06:59:59.031Z,75.2
2019-04-14T07:01:06.232Z,79.7
2019-04-14T07:02:13.433Z,76.7
2019-04-14T07:03:20.629Z,63.4
2019-04-14T07:04:27.561Z,58.1
2019-04-14T07:05:34.756Z,68.7
2019-04-14T07:06:41.682Z,58.5
2019-04-14T07:07:56.685Z,65.5
2019-04-14T07:09:04.463Z,71
2019-04-14T07:10:11.662Z,50
2019-04-14T07:11:18.858Z,51.2
2019-04-14T07:12:26.058Z,41.8
2019-04-14T07:13:33.291Z,76.6
2019-04-14T07:14:40.490Z,55
2019-04-14T07:15:47.690Z,37
2019-04-14T07:16:54.895Z,30.9
2019-04-14T07:18:02.095Z,47.5
2019-04-14T07:19:09.297Z,21.1
2019-04-14T07:20:16.493Z,29.2
2019-04-14T07:21:23.695Z,22.8
2019-04-14T07:23:52.467Z,33.6
2019-04-14T07:24:59.667Z,31.2
2019-04-14T07:26:06.872Z,13.2
2019-04-14T07:27:13.795Z,10.8
2019-04-14T07:28:20.998Z,14
2019-04-14T07:29:28.195Z,2.2
2019-04-14T07:30:35.123Z,4.5
2019-04-14T07:31:42.319Z,5.1
2019-04-14T07:32:49.530Z,1
2019-04-14T07:33:56.732Z,7.6
2019-04-14T07:35:03.933Z,8.9
2019-04-14T07:36:11.130Z,3.7
2019-04-14T07:37:19.103Z,1
2019-04-14T07:38:26.465Z,1
2019-04-14T07:39:33.673Z,1
2019-04-14T07:40:40.868Z,1.2
2019-04-14T07:41:47.794Z,1
2019-04-14T07:42:54.993Z,1
2019-04-14T07:44:01.661Z,1
2019-04-14T07:45:08.580Z,1
2019-04-14T07:46:15.784Z,1
2019-04-14T07:47:23.036Z,1
2019-04-14T07:48:30.255Z,1
2019-04-14T07:49:37.518Z,1
2019-04-14T07:50:44.455Z,1
2019-04-14T07:51:51.388Z,1
2019-04-14T07:52:58.592Z,1
2019-04-14T07:54:05.802Z,1
2019-04-14T07:55:12.732Z,1
2019-04-14T07:56:19.931Z,1
2019-04-14T07:57:26.866Z,1
2019-04-14T07:58:34.066Z,1
2019-04-14T07:59:40.719Z,1
2019-04-14T08:00:47.920Z,1
2019-04-14T08:01:55.136Z,1
2019-04-14T22:00:05.497Z,99.9
2019-04-14T22:01:12.432Z,99.9
2019-04-14T22:02:19.636Z,99.9
2019-04-14T22:03:26.841Z,99.9
2019-04-14T22:04:33.767Z,99.9
2019-04-14T22:05:40.696Z,99.9
2019-04-14T22:06:47.928Z,99.9
2019-04-14T22:07:55.251Z,99.9
2019-04-14T22:09:02.452Z,99.9
2019-04-14T22:10:09.650Z,99.9
2019-04-14T22:11:16.859Z,99.9
2019-04-14T22:12:24.059Z,99.9
2019-04-14T22:13:30.982Z,99.9
2019-04-14T22:14:37.635Z,99.9
2019-04-14T22:15:45.059Z,99.9
2019-04-14T22:16:51.980Z,99.9
2019-04-14T22:17:59.187Z,99.9
2019-04-14T22:19:06.104Z,99.9
2019-04-14T22:20:13.035Z,99.9
2019-04-14T22:21:20.239Z,99.9
2019-04-14T22:22:27.438Z,99.9
2019-04-14T22:23:34.636Z,99.9
2019-04-14T22:24:41.838Z,99.9
2019-04-14T22:25:48.761Z,99.9
2019-04-14T22:26:56.057Z,99.9
2019-04-14T22:28:03.068Z,99.9
2019-04-14T22:29:10.273Z,99.9
2019-04-14T22:30:17.463Z,99.9
2019-04-14T22:31:24.160Z,99.9
2019-04-14T22:32:31.350Z,99.9
2019-04-14T22:33:38.549Z,99.9
2019-04-14T22:34:45.751Z,99.9
2019-04-14T22:35:52.944Z,99.9
2019-04-14T22:37:00.198Z,99.9
2019-04-14T22:38:07.397Z,99.9
2019-04-14T22:39:14.628Z,99.9
2019-04-14T22:40:21.828Z,99.9
2019-04-14T22:41:29.028Z,99.9
2019-04-14T22:42:36.224Z,99.9
2019-04-14T22:43:43.436Z,99.9
2019-04-14T22:44:50.641Z,99.9
2019-04-14T22:45:57.572Z,99.9
2019-04-14T22:47:04.795Z,99.9
2019-04-14T22:48:11.994Z,99.9
2019-04-14T22:49:19.205Z,99.9
2019-04-14T22:50:26.408Z,99.9
2019-04-14T22:51:33.627Z,99.9
2019-04-14T22:52:40.819Z,99.9
2019-04-14T22:53:48.022Z,99.9
2019-04-14T22:54:54.954Z,99.9
2019-04-14T22:57:09.053Z,99.9
2019-04-14T22:58:16.261Z,99.9
2019-04-14T22:59:23.486Z,99.9
2019-04-14T23:00:30.683Z,99.9
2019-04-14T23:01:37.612Z,99.9
2019-04-14T23:02:44.812Z,99.9
2019-04-14T23:03:52.011Z,99.9
2019-04-14T23:04:59.206Z,99.9
2019-04-14T23:06:06.124Z,99.9
2019-04-14T23:07:13.337Z,99.9
2019-04-14T23:08:20.565Z,99.9
2019-04-14T23:09:27.760Z,99.9
2019-04-14T23:10:34.961Z,99.9
2019-04-14T23:11:42.160Z,99.9
2019-04-14T23:12:49.359Z,99.9
2019-04-14T23:13:56.291Z,99.9
2019-04-14T23:15:02.955Z,99.9
2019-04-14T23:16:10.167Z,99.9
2019-04-14T23:17:17.094Z,99.9
2019-04-14T23:18:24.294Z,99.9
2019-04-14T23:19:31.495Z,99.9
2019-04-14T23:20:38.787Z,99.9
2019-04-14T23:22:56.498Z,99.9
2019-04-14T23:24:03.709Z,99.9
2019-04-14T23:25:10.636Z,99.9
2019-04-14T23:26:17.838Z,99.9
2019-04-14T23:27:25.035Z,99.9
2019-04-14T23:28:32.232Z,99.9
2019-04-14T23:29:38.891Z,99.9
2019-04-14T23:30:46.094Z,99.9
2019-04-14T23:31:53.019Z,99.9
2019-04-14T23:33:00.218Z,99.9
2019-04-14T23:34:07.414Z,99.9
2019-04-14T23:35:14.622Z,99.9
2019-04-14T23:36:21.545Z,99.9
2019-04-14T23:37:28.744Z,99.9
2019-04-14T23:38:35.961Z,99.9
2019-04-14T23:39:43.169Z,99.9
2019-04-14T23:40:50.096Z,99.9
2019-04-14T23:41:57.296Z,99.9
2019-04-14T23:43:04.228Z,99.9
2019-04-14T23:44:11.428Z,99.9
2019-04-14T23:45:18.677Z,99.9
2019-04-14T23:46:25.925Z,99.9
2019-04-14T23:47:33.125Z,99.9
2019-04-14T23:48:40.056Z,99.9
2019-04-14T23:49:46.984Z,99.9
2019-04-14T23:50:54.181Z,99.9
2019-04-14T23:52:01.386Z,99.9
2019-04-14T23:53:08.586Z,99.9
2019-04-14T23:54:15.882Z,99.9
2019-04-14T23:55:22.800Z,99.9
2019-04-14T23:56:29.999Z,99.9
2019-04-14T23:57:37.209Z,99.9
2019-04-14T23:58:44.404Z,99.9
2019-04-14T23:59:51.610Z,99.9
